createdAt,value
2018-12-14T00:00:18.446Z,99.99
2018-12-14T00:01:18.420Z,99.99
2018-12-14T00:02:18.395Z,99.99
2018-12-14T00:03:18.364Z,99.99
2018-12-14T00:04:18.337Z,99.99
2018-12-14T00:05:18.309Z,99.99
2018-12-14T00:06:18.281Z,99.99
2018-12-14T00:07:18.258Z,99.99
2018-12-14T00:08:18.226Z,99.99
2018-12-14T00:09:18.198Z,99.99
2018-12-14T00:10:18.172Z,99.99
2018-12-14T00:11:18.142Z,99.99
2018-12-14T00:12:18.115Z,99.99
2018-12-14T00:13:18.091Z,99.99
2018-12-14T00:14:18.060Z,99.99
2018-12-14T00:15:18.033Z,99.99
2018-12-14T00:16:18.003Z,99.99
2018-12-14T00:17:17.978Z,99.99
2018-12-14T00:18:17.951Z,99.99
2018-12-14T00:19:17.921Z,99.99
2018-12-14T00:20:17.894Z,99.99
2018-12-14T00:21:17.869Z,99.99
2018-12-14T00:22:17.838Z,99.99
2018-12-14T00:23:17.811Z,99.99
2018-12-14T00:24:17.781Z,99.99
2018-12-14T00:25:17.755Z,99.99
2018-12-14T00:26:17.729Z,99.99
2018-12-14T00:27:17.700Z,99.99
2018-12-14T00:28:17.671Z,99.99
2018-12-14T00:29:17.644Z,99.99
2018-12-14T00:30:17.615Z,99.99
2018-12-14T00:31:17.588Z,99.99
2018-12-14T00:32:17.560Z,99.99
2018-12-14T00:33:17.533Z,99.99
2018-12-14T00:34:17.505Z,99.99
2018-12-14T00:35:17.477Z,99.99
2018-12-14T00:36:17.448Z,99.99
2018-12-14T00:37:17.422Z,99.99
2018-12-14T00:38:17.394Z,99.99
2018-12-14T00:39:17.365Z,99.99
2018-12-14T00:40:17.340Z,99.99
2018-12-14T00:41:17.310Z,99.99
2018-12-14T00:42:17.286Z,99.99
2018-12-14T00:43:17.253Z,99.99
2018-12-14T00:44:17.226Z,99.99
2018-12-14T00:45:17.199Z,99.99
2018-12-14T00:46:17.176Z,99.99
2018-12-14T00:47:17.142Z,99.99
2018-12-14T00:48:17.114Z,99.99
2018-12-14T00:49:17.089Z,99.99
2018-12-14T00:50:17.059Z,99.99
2018-12-14T00:51:17.039Z,99.99
2018-12-14T00:52:17.004Z,99.99
2018-12-14T00:53:16.976Z,99.99
2018-12-14T00:54:16.950Z,99.99
2018-12-14T00:55:16.918Z,99.99
2018-12-14T00:56:16.892Z,99.99
2018-12-14T00:57:16.863Z,99.99
2018-12-14T00:58:16.835Z,99.99
2018-12-14T00:59:16.807Z,99.99
2018-12-14T01:00:16.779Z,99.99
2018-12-14T01:01:16.757Z,99.99
2018-12-14T01:02:16.724Z,99.99
2018-12-14T01:03:16.696Z,99.99
2018-12-14T01:04:16.668Z,99.99
2018-12-14T01:05:16.641Z,99.99
2018-12-14T01:06:16.613Z,99.99
2018-12-14T01:07:16.583Z,99.99
2018-12-14T01:08:16.556Z,99.99
2018-12-14T01:09:16.532Z,99.99
2018-12-14T01:10:16.501Z,99.99
2018-12-14T01:11:16.471Z,99.99
2018-12-14T01:12:16.444Z,99.99
2018-12-14T01:13:16.417Z,99.99
2018-12-14T01:14:16.390Z,99.99
2018-12-14T01:15:16.365Z,99.99
2018-12-14T01:16:16.333Z,99.99
2018-12-14T01:17:16.322Z,99.99
2018-12-14T01:18:16.277Z,99.99
2018-12-14T01:19:16.249Z,99.99
2018-12-14T01:20:16.220Z,99.99
2018-12-14T01:21:16.194Z,99.99
2018-12-14T01:22:16.166Z,99.99
2018-12-14T01:23:52.079Z,99.99
2018-12-14T01:24:16.115Z,99.99
2018-12-14T01:25:16.083Z,99.99
2018-12-14T01:26:16.055Z,99.99
2018-12-14T01:27:16.027Z,99.99
2018-12-14T01:28:15.999Z,99.99
2018-12-14T01:29:15.972Z,99.99
2018-12-14T01:30:15.943Z,99.99
2018-12-14T01:31:15.915Z,99.99
2018-12-14T01:32:15.886Z,99.99
2018-12-14T01:33:15.860Z,99.99
2018-12-14T01:34:15.832Z,99.99
2018-12-14T01:35:15.803Z,99.99
2018-12-14T01:36:15.774Z,99.99
2018-12-14T01:37:15.747Z,99.99
2018-12-14T01:38:15.719Z,99.99
2018-12-14T01:39:15.693Z,99.99
2018-12-14T01:40:15.665Z,99.99
2018-12-14T01:41:15.636Z,99.99
2018-12-14T01:42:15.608Z,99.99
2018-12-14T01:43:15.579Z,99.99
2018-12-14T01:44:15.559Z,99.99
2018-12-14T01:45:15.524Z,99.99
2018-12-14T01:46:15.497Z,99.99
2018-12-14T01:47:15.468Z,99.99
2018-12-14T01:48:15.441Z,99.99
2018-12-14T01:49:15.413Z,99.99
2018-12-14T01:50:15.384Z,99.99
2018-12-14T01:51:15.357Z,99.99
2018-12-14T01:52:15.328Z,99.99
2018-12-14T01:53:15.301Z,99.99
2018-12-14T01:54:15.272Z,99.99
2018-12-14T01:55:15.244Z,99.99
2018-12-14T01:56:15.216Z,99.99
2018-12-14T01:57:15.188Z,99.99
2018-12-14T01:58:15.160Z,99.99
2018-12-14T01:59:15.135Z,99.99
2018-12-14T02:00:15.106Z,99.99
2018-12-14T02:01:15.075Z,99.99
2018-12-14T02:02:15.048Z,99.99
2018-12-14T02:03:15.020Z,99.99
2018-12-14T02:04:14.991Z,99.99
2018-12-14T02:05:14.965Z,99.99
2018-12-14T02:06:14.936Z,99.99
2018-12-14T02:07:14.906Z,99.99
2018-12-14T02:08:14.881Z,99.99
2018-12-14T02:09:14.853Z,99.99
2018-12-14T02:10:14.826Z,99.99
2018-12-14T02:11:14.796Z,99.99
2018-12-14T02:12:14.766Z,99.99
2018-12-14T02:13:14.738Z,99.99
2018-12-14T02:14:14.712Z,99.99
2018-12-14T02:15:14.681Z,99.99
2018-12-14T02:16:14.655Z,99.99
2018-12-14T02:17:14.626Z,99.99
2018-12-14T02:18:14.629Z,99.99
2018-12-14T02:19:14.569Z,99.99
2018-12-14T02:20:14.542Z,99.99
2018-12-14T02:21:14.513Z,99.99
2018-12-14T02:22:14.488Z,99.99
2018-12-14T02:23:14.457Z,99.99
2018-12-14T02:24:14.429Z,99.99
2018-12-14T02:25:14.402Z,99.99
2018-12-14T02:26:14.375Z,99.99
2018-12-14T02:27:14.345Z,99.99
2018-12-14T02:28:14.316Z,99.99
2018-12-14T02:29:14.290Z,99.99
2018-12-14T02:30:14.262Z,99.99
2018-12-14T02:31:14.234Z,99.99
2018-12-14T02:32:14.205Z,99.99
2018-12-14T02:33:14.183Z,99.99
2018-12-14T02:34:14.149Z,99.99
2018-12-14T02:35:14.120Z,99.99
2018-12-14T02:36:14.093Z,99.99
2018-12-14T02:37:14.065Z,99.99
2018-12-14T02:38:14.038Z,99.99
2018-12-14T02:39:14.008Z,99.99
2018-12-14T02:40:13.979Z,99.99
2018-12-14T02:41:13.952Z,99.99
2018-12-14T02:42:19.285Z,99.99
2018-12-14T02:43:13.896Z,99.99
2018-12-14T02:44:13.867Z,99.99
2018-12-14T02:45:13.839Z,99.99
2018-12-14T02:46:13.813Z,99.99
2018-12-14T02:47:13.782Z,99.99
2018-12-14T02:48:13.754Z,99.99
2018-12-14T02:49:13.728Z,99.99
2018-12-14T02:50:13.699Z,99.99
2018-12-14T02:51:13.670Z,99.99
2018-12-14T02:52:13.642Z,99.99
2018-12-14T02:53:13.613Z,99.99
2018-12-14T02:54:13.612Z,99.99
2018-12-14T02:55:13.557Z,99.99
2018-12-14T02:56:13.540Z,99.99
2018-12-14T02:57:13.503Z,99.99
2018-12-14T02:58:13.473Z,99.99
2018-12-14T02:59:13.443Z,99.99
2018-12-14T03:00:13.419Z,99.99
2018-12-14T03:01:13.388Z,99.99
2018-12-14T03:02:13.360Z,99.99
2018-12-14T03:03:13.330Z,99.99
2018-12-14T03:04:13.303Z,99.99
2018-12-14T03:05:13.276Z,99.99
2018-12-14T03:06:13.246Z,99.99
2018-12-14T03:07:13.217Z,99.99
2018-12-14T03:08:13.191Z,99.99
2018-12-14T03:09:13.162Z,99.99
2018-12-14T03:10:13.134Z,99.99
2018-12-14T03:11:13.106Z,99.99
2018-12-14T03:12:13.076Z,99.99
2018-12-14T03:13:13.050Z,99.99
2018-12-14T03:14:13.022Z,99.99
2018-12-14T03:15:12.993Z,99.99
2018-12-14T03:16:12.964Z,99.99
2018-12-14T03:17:12.937Z,99.99
2018-12-14T03:18:12.909Z,99.99
2018-12-14T03:19:12.880Z,99.99
2018-12-14T03:20:12.851Z,99.99
2018-12-14T03:21:12.823Z,99.99
2018-12-14T03:22:12.797Z,99.99
2018-12-14T03:23:12.769Z,99.99
2018-12-14T03:24:12.742Z,99.99
2018-12-14T03:25:12.713Z,99.99
2018-12-14T03:26:12.688Z,99.99
2018-12-14T03:27:12.654Z,99.99
2018-12-14T03:28:12.630Z,99.99
2018-12-14T03:29:12.600Z,99.99
2018-12-14T03:30:12.571Z,99.99
2018-12-14T03:31:12.552Z,99.99
2018-12-14T03:32:12.515Z,99.99
2018-12-14T03:33:12.485Z,99.99
2018-12-14T03:34:12.458Z,99.99
2018-12-14T03:35:12.428Z,99.99
2018-12-14T03:36:12.513Z,99.99
2018-12-14T03:37:12.382Z,99.99
2018-12-14T03:38:12.347Z,99.99
2018-12-14T03:39:12.316Z,99.99
2018-12-14T03:40:12.289Z,99.99
2018-12-14T03:41:12.264Z,99.99
2018-12-14T03:42:12.232Z,99.99
2018-12-14T03:43:12.204Z,99.99
2018-12-14T03:44:12.176Z,99.99
2018-12-14T03:45:12.151Z,99.99
2018-12-14T03:46:12.119Z,99.99
2018-12-14T03:47:12.091Z,99.99
2018-12-14T03:48:12.076Z,99.99
2018-12-14T03:49:12.035Z,99.99
2018-12-14T03:50:12.009Z,99.99
2018-12-14T03:51:11.977Z,99.99
2018-12-14T03:52:11.951Z,99.99
2018-12-14T03:53:11.922Z,99.99
2018-12-14T03:54:11.894Z,99.99
2018-12-14T03:55:11.866Z,99.99
2018-12-14T03:56:11.839Z,99.99
2018-12-14T03:57:11.813Z,99.99
2018-12-14T03:58:11.782Z,99.99
2018-12-14T03:59:11.753Z,99.99
2018-12-14T04:00:11.726Z,99.99
2018-12-14T04:01:11.696Z,99.99
2018-12-14T04:02:11.669Z,99.99
2018-12-14T04:03:11.640Z,99.99
2018-12-14T04:04:11.615Z,99.99
2018-12-14T04:05:11.586Z,99.99
2018-12-14T04:06:11.564Z,99.99
2018-12-14T04:07:11.535Z,99.99
2018-12-14T04:08:11.500Z,99.99
2018-12-14T04:09:11.475Z,99.99
2018-12-14T04:10:11.446Z,99.99
2018-12-14T04:11:11.418Z,99.99
2018-12-14T04:12:11.403Z,99.99
2018-12-14T04:13:11.361Z,99.99
2018-12-14T04:14:11.333Z,99.99
2018-12-14T04:15:11.304Z,99.99
2018-12-14T04:16:11.276Z,99.99
2018-12-14T04:17:11.246Z,99.99
2018-12-14T04:18:11.219Z,99.99
2018-12-14T04:19:11.192Z,99.99
2018-12-14T04:20:11.165Z,99.99
2018-12-14T04:21:11.135Z,99.99
2018-12-14T04:22:11.119Z,99.99
2018-12-14T04:23:11.079Z,99.99
2018-12-14T04:24:11.053Z,99.99
2018-12-14T04:25:11.028Z,99.99
2018-12-14T04:26:11.002Z,99.99
2018-12-14T04:27:10.969Z,99.99
2018-12-14T04:28:10.940Z,99.99
2018-12-14T04:29:10.915Z,99.99
2018-12-14T04:30:10.884Z,99.99
2018-12-14T04:31:10.860Z,99.99
2018-12-14T04:32:10.832Z,99.99
2018-12-14T04:33:10.805Z,99.99
2018-12-14T04:34:10.772Z,99.99
2018-12-14T04:35:10.746Z,99.99
2018-12-14T04:36:10.716Z,99.99
2018-12-14T04:37:10.689Z,99.99
2018-12-14T04:38:10.661Z,99.99
2018-12-14T04:39:10.632Z,99.99
2018-12-14T04:40:10.606Z,99.99
2018-12-14T04:41:10.577Z,99.99
2018-12-14T04:42:10.549Z,99.99
2018-12-14T04:43:10.596Z,99.99
2018-12-14T04:44:10.492Z,99.99
2018-12-14T04:45:10.464Z,99.99
2018-12-14T04:46:10.437Z,99.99
2018-12-14T04:47:10.409Z,99.99
2018-12-14T04:48:10.381Z,99.99
2018-12-14T04:49:10.353Z,99.99
2018-12-14T04:50:10.582Z,99.99
2018-12-14T04:51:10.298Z,99.99
2018-12-14T04:52:10.271Z,99.99
2018-12-14T04:53:10.241Z,99.99
2018-12-14T04:54:10.214Z,99.99
2018-12-14T04:55:10.185Z,99.99
2018-12-14T04:56:10.160Z,99.99
2018-12-14T04:57:10.131Z,99.99
2018-12-14T04:58:10.101Z,99.99
2018-12-14T04:59:10.073Z,99.99
2018-12-14T05:00:10.047Z,99.99
2018-12-14T05:01:10.079Z,99.99
2018-12-14T05:02:10.056Z,99.99
2018-12-14T05:03:10.007Z,99.99
2018-12-14T05:04:09.934Z,99.99
2018-12-14T05:05:09.909Z,99.99
2018-12-14T05:06:09.876Z,99.99
2018-12-14T05:07:09.875Z,99.99
2018-12-14T05:08:09.872Z,99.99
2018-12-14T05:09:09.800Z,99.99
2018-12-14T05:10:09.777Z,99.99
2018-12-14T05:11:09.741Z,99.99
2018-12-14T05:12:09.711Z,99.99
2018-12-14T05:13:09.686Z,99.99
2018-12-14T05:14:09.653Z,99.99
2018-12-14T05:15:09.627Z,99.99
2018-12-14T05:16:09.598Z,99.99
2018-12-14T05:17:09.571Z,99.99
2018-12-14T05:18:09.546Z,99.99
2018-12-14T05:19:09.512Z,99.99
2018-12-14T05:20:09.483Z,99.99
2018-12-14T05:21:09.456Z,99.99
2018-12-14T05:22:09.428Z,99.99
2018-12-14T05:23:09.399Z,99.99
2018-12-14T05:24:09.372Z,99.99
2018-12-14T05:25:09.342Z,99.99
2018-12-14T05:26:09.316Z,99.99
2018-12-14T05:27:09.285Z,99.99
2018-12-14T05:28:09.260Z,99.99
2018-12-14T05:29:09.230Z,99.99
2018-12-14T05:30:09.202Z,99.99
2018-12-14T05:31:09.171Z,99.99
2018-12-14T05:32:09.147Z,99.99
2018-12-14T05:33:09.124Z,99.99
2018-12-14T05:34:09.131Z,99.99
2018-12-14T05:35:09.064Z,99.99
2018-12-14T05:36:09.032Z,99.99
2018-12-14T05:37:09.005Z,99.99
2018-12-14T05:38:08.976Z,99.99
2018-12-14T05:39:08.946Z,99.99
2018-12-14T05:40:08.920Z,99.99
2018-12-14T05:41:08.891Z,99.99
2018-12-14T05:42:08.862Z,99.99
2018-12-14T05:43:08.833Z,99.99
2018-12-14T05:44:08.817Z,99.99
2018-12-14T05:45:08.794Z,99.99
2018-12-14T05:46:08.749Z,99.99
2018-12-14T05:47:08.719Z,99.99
2018-12-14T05:48:08.692Z,99.99
2018-12-14T05:49:08.664Z,99.99
2018-12-14T05:50:08.636Z,99.99
2018-12-14T05:51:08.607Z,99.99
2018-12-14T05:52:08.578Z,99.99
2018-12-14T05:53:08.550Z,99.99
2018-12-14T05:54:08.524Z,99.99
2018-12-14T05:55:08.496Z,99.99
2018-12-14T05:56:08.466Z,99.99
2018-12-14T05:57:08.439Z,99.99
2018-12-14T05:58:08.409Z,99.99
2018-12-14T05:59:08.380Z,99.99
2018-12-14T06:00:08.355Z,99.99
2018-12-14T06:01:08.322Z,99.99
2018-12-14T06:02:08.297Z,99.99
2018-12-14T06:03:08.268Z,99.99
2018-12-14T06:04:08.243Z,99.99
2018-12-14T06:05:08.209Z,99.99
2018-12-14T06:06:08.182Z,99.99
2018-12-14T06:07:08.157Z,99.99
2018-12-14T06:08:08.124Z,99.99
2018-12-14T06:09:08.097Z,99.99
2018-12-14T06:10:08.068Z,99.99
2018-12-14T06:11:08.039Z,99.99
2018-12-14T06:12:08.017Z,99.99
2018-12-14T06:13:09.300Z,99.99
2018-12-14T06:14:07.953Z,99.99
2018-12-14T06:15:07.926Z,99.99
2018-12-14T06:16:07.896Z,99.99
2018-12-14T06:17:07.869Z,99.99
2018-12-14T06:18:07.841Z,99.99
2018-12-14T06:19:07.811Z,99.99
2018-12-14T06:20:07.799Z,99.99
2018-12-14T06:21:07.760Z,99.99
2018-12-14T06:22:07.726Z,99.99
2018-12-14T06:23:07.698Z,99.99
2018-12-14T06:24:07.671Z,99.99
2018-12-14T06:25:07.641Z,99.99
2018-12-14T06:26:07.613Z,99.99
2018-12-14T06:27:07.583Z,99.99
2018-12-14T06:28:07.556Z,99.99
2018-12-14T06:29:07.527Z,99.99
2018-12-14T06:30:07.499Z,99.99
2018-12-14T06:31:07.470Z,99.99
2018-12-14T06:32:07.444Z,99.99
2018-12-14T06:33:07.412Z,99.99
2018-12-14T06:34:07.385Z,99.99
2018-12-14T06:35:07.357Z,99.99
2018-12-14T06:36:07.327Z,99.99
2018-12-14T06:37:07.299Z,99.99
2018-12-14T06:38:07.271Z,99.99
2018-12-14T06:39:07.243Z,99.99
2018-12-14T06:40:07.215Z,99.99
2018-12-14T06:41:07.189Z,99.99
2018-12-14T06:42:07.157Z,99.99
2018-12-14T06:43:07.128Z,99.99
2018-12-14T06:44:07.099Z,99.99
2018-12-14T06:45:07.069Z,99.99
2018-12-14T06:46:07.042Z,99.99
2018-12-14T06:47:07.012Z,99.99
2018-12-14T06:48:06.984Z,99.99
2018-12-14T06:49:06.957Z,99.99
2018-12-14T06:50:06.960Z,99.99
2018-12-14T06:51:06.910Z,99.99
2018-12-14T06:52:06.871Z,99.99
2018-12-14T06:53:06.842Z,99.99
2018-12-14T06:54:06.815Z,99.99
2018-12-14T06:55:06.785Z,99.99
2018-12-14T06:56:06.778Z,99.99
2018-12-14T06:57:06.727Z,99.99
2018-12-14T06:58:06.700Z,99.99
2018-12-14T06:59:06.671Z,99.99
2018-12-14T07:00:06.920Z,99.99
2018-12-14T07:01:06.613Z,99.99
2018-12-14T07:02:06.628Z,99.99
2018-12-14T07:03:06.557Z,99.99
2018-12-14T07:04:06.530Z,99.99
2018-12-14T07:05:06.501Z,99.99
2018-12-14T07:06:06.475Z,99.99
2018-12-14T07:07:06.442Z,99.99
2018-12-14T07:08:06.415Z,99.99
2018-12-14T07:09:06.388Z,99.99
2018-12-14T07:10:06.357Z,99.99
2018-12-14T07:11:06.329Z,99.99
2018-12-14T07:12:06.299Z,99.99
2018-12-14T07:13:06.270Z,99.99
2018-12-14T07:14:06.244Z,99.99
2018-12-14T07:15:06.224Z,99.99
2018-12-14T07:16:06.186Z,99.99
2018-12-14T07:17:06.158Z,99.99
2018-12-14T07:18:06.127Z,99.99
2018-12-14T07:19:06.098Z,99.99
2018-12-14T07:20:06.071Z,99.99
2018-12-14T07:21:06.043Z,99.99
2018-12-14T07:22:06.014Z,99.99
2018-12-14T07:23:05.987Z,99.99
2018-12-14T07:24:05.957Z,99.99
2018-12-14T07:25:05.929Z,99.99
2018-12-14T07:26:05.901Z,99.99
2018-12-14T07:27:05.871Z,99.99
2018-12-14T07:28:05.842Z,99.99
2018-12-14T07:29:05.814Z,99.99
2018-12-14T07:30:05.787Z,99.99
2018-12-14T07:31:05.756Z,99.99
2018-12-14T07:32:05.727Z,99.99
2018-12-14T07:33:05.700Z,99.99
2018-12-14T07:34:05.672Z,99.99
2018-12-14T07:35:05.643Z,99.99
2018-12-14T07:36:05.628Z,99.99
2018-12-14T07:37:05.591Z,99.99
2018-12-14T07:38:05.560Z,99.99
2018-12-14T07:39:05.529Z,99.99
2018-12-14T07:40:05.502Z,99.99
2018-12-14T07:41:05.473Z,99.99
2018-12-14T07:42:05.445Z,99.99
2018-12-14T07:43:05.416Z,99.99
2018-12-14T07:44:05.390Z,99.99
2018-12-14T07:45:05.359Z,99.99
2018-12-14T07:46:05.332Z,99.99
2018-12-14T07:47:11.463Z,99.99
2018-12-14T07:48:05.275Z,99.99
2018-12-14T07:49:05.246Z,99.99
2018-12-14T07:50:05.217Z,99.99
2018-12-14T07:51:05.188Z,99.99
2018-12-14T07:52:05.162Z,99.99
2018-12-14T07:53:09.099Z,99.99
2018-12-14T07:54:05.106Z,99.99
2018-12-14T07:55:05.074Z,99.99
2018-12-14T07:56:05.047Z,99.99
2018-12-14T07:57:05.020Z,99.99
2018-12-14T07:58:04.990Z,99.99
2018-12-14T07:59:04.960Z,99.99
2018-12-14T08:00:04.932Z,99.99
2018-12-14T08:01:04.909Z,99.99
2018-12-14T08:02:04.875Z,99.99
2018-12-14T08:03:04.847Z,99.99
2018-12-14T08:04:04.819Z,99.99
2018-12-14T08:05:04.791Z,99.99
2018-12-14T08:06:04.763Z,99.99
2018-12-14T08:07:04.735Z,99.99
2018-12-14T08:08:04.706Z,99.99
2018-12-14T08:09:04.678Z,99.99
2018-12-14T08:10:04.650Z,99.99
2018-12-14T08:11:04.623Z,99.99
2018-12-14T08:12:04.593Z,99.99
2018-12-14T08:13:04.564Z,99.99
2018-12-14T08:14:04.539Z,99.99
2018-12-14T08:15:11.098Z,99.99
2018-12-14T08:16:04.480Z,99.99
2018-12-14T08:17:04.452Z,99.99
2018-12-14T08:18:04.424Z,99.99
2018-12-14T08:19:04.394Z,99.99
2018-12-14T08:20:04.392Z,99.99
2018-12-14T08:21:04.339Z,99.99
2018-12-14T08:22:04.311Z,99.99
2018-12-14T08:23:04.285Z,99.99
2018-12-14T08:24:04.253Z,99.99
2018-12-14T08:25:04.226Z,99.99
2018-12-14T08:26:04.197Z,99.99
2018-12-14T08:27:04.169Z,99.99
2018-12-14T08:28:04.150Z,99.99
2018-12-14T08:29:04.111Z,99.99
2018-12-14T08:30:04.085Z,99.99
2018-12-14T08:31:04.085Z,99.99
2018-12-14T08:32:04.027Z,99.99
2018-12-14T08:33:03.997Z,99.99
2018-12-14T08:34:03.969Z,99.99
2018-12-14T08:35:03.941Z,99.99
2018-12-14T08:36:03.912Z,99.99
2018-12-14T08:37:03.883Z,99.99
2018-12-14T08:38:03.856Z,99.99
2018-12-14T08:39:03.827Z,99.99
2018-12-14T08:40:03.800Z,99.99
2018-12-14T08:41:03.770Z,99.99
2018-12-14T08:42:03.743Z,99.99
2018-12-14T08:43:03.712Z,99.99
2018-12-14T08:44:03.686Z,99.99
2018-12-14T08:45:03.657Z,99.99
2018-12-14T08:46:03.629Z,99.99
2018-12-14T08:47:03.600Z,99.99
2018-12-14T08:48:03.573Z,99.99
2018-12-14T08:49:03.543Z,99.99
2018-12-14T08:50:03.515Z,99.99
2018-12-14T08:51:03.486Z,99.99
2018-12-14T08:52:03.463Z,99.99
2018-12-14T08:53:03.431Z,99.99
2018-12-14T08:54:03.401Z,99.99
2018-12-14T08:55:03.374Z,99.99
2018-12-14T08:56:03.346Z,99.99
2018-12-14T08:57:03.317Z,99.99
2018-12-14T08:58:03.290Z,99.99
2018-12-14T08:59:03.275Z,99.99
2018-12-14T09:00:03.232Z,99.99
2018-12-14T09:01:03.205Z,99.99
2018-12-14T09:02:03.178Z,99.99
2018-12-14T09:03:03.146Z,99.99
2018-12-14T09:04:03.118Z,99.99
2018-12-14T09:05:03.091Z,99.99
2018-12-14T09:06:03.070Z,99.99
2018-12-14T09:07:03.033Z,99.99
2018-12-14T09:08:03.005Z,99.99
2018-12-14T09:09:02.977Z,99.99
2018-12-14T09:10:02.950Z,99.99
2018-12-14T09:11:02.921Z,99.99
2018-12-14T09:12:02.892Z,99.99
2018-12-14T09:13:02.863Z,99.99
2018-12-14T09:14:02.837Z,99.99
2018-12-14T09:15:02.810Z,99.99
2018-12-14T09:16:02.779Z,99.99
2018-12-14T09:17:02.751Z,99.99
2018-12-14T09:18:02.725Z,99.99
2018-12-14T09:19:02.696Z,99.99
2018-12-14T09:20:02.666Z,99.99
2018-12-14T09:21:02.641Z,99.99
2018-12-14T09:22:02.610Z,99.99
2018-12-14T09:23:02.581Z,99.99
2018-12-14T09:24:02.552Z,99.99
2018-12-14T09:25:02.526Z,99.99
2018-12-14T09:26:02.497Z,99.99
2018-12-14T09:27:02.467Z,99.99
2018-12-14T09:28:02.440Z,99.99
2018-12-14T09:29:02.414Z,99.99
2018-12-14T09:30:02.386Z,99.99
2018-12-14T09:31:02.355Z,99.99
2018-12-14T09:32:02.327Z,99.99
2018-12-14T09:33:02.308Z,99.99
2018-12-14T09:34:02.278Z,99.99
2018-12-14T09:35:02.250Z,99.99
2018-12-14T09:36:02.215Z,99.99
2018-12-14T09:37:02.187Z,99.99
2018-12-14T09:38:02.159Z,99.99
2018-12-14T09:39:02.130Z,99.99
2018-12-14T09:40:02.111Z,99.99
2018-12-14T09:41:02.074Z,99.99
2018-12-14T09:42:02.046Z,99.99
2018-12-14T09:43:02.020Z,99.99
2018-12-14T09:44:01.990Z,99.99
2018-12-14T09:45:01.962Z,99.99
2018-12-14T09:46:01.935Z,99.99
2018-12-14T09:47:01.907Z,99.99
2018-12-14T09:48:01.879Z,99.99
2018-12-14T09:49:01.850Z,99.99
2018-12-14T09:50:01.827Z,99.99
2018-12-14T09:51:01.795Z,99.99
2018-12-14T09:52:01.772Z,99.99
2018-12-14T09:53:01.746Z,99.99
2018-12-14T09:54:01.710Z,99.99
2018-12-14T09:55:01.681Z,99.99
2018-12-14T09:56:01.655Z,99.99
2018-12-14T09:57:01.626Z,99.99
2018-12-14T09:58:01.598Z,99.99
2018-12-14T09:59:01.570Z,99.99
2018-12-14T10:00:01.544Z,99.99
2018-12-14T10:01:01.515Z,99.99
2018-12-14T10:02:01.488Z,99.99
2018-12-14T10:03:01.459Z,99.99
2018-12-14T10:04:01.431Z,99.99
2018-12-14T10:05:01.403Z,99.99
2018-12-14T10:06:01.376Z,99.99
2018-12-14T10:07:01.347Z,99.99
2018-12-14T10:08:01.319Z,99.99
2018-12-14T10:09:01.292Z,99.99
2018-12-14T10:10:01.266Z,99.99
2018-12-14T10:11:01.238Z,99.99
2018-12-14T10:12:01.208Z,99.99
2018-12-14T10:13:01.183Z,99.99
2018-12-14T10:14:01.155Z,99.99
2018-12-14T10:15:01.126Z,99.99
2018-12-14T10:16:01.097Z,99.99
2018-12-14T10:17:01.073Z,99.99
2018-12-14T10:18:01.043Z,99.99
2018-12-14T10:19:01.014Z,99.99
2018-12-14T10:20:00.986Z,99.99
2018-12-14T10:21:00.960Z,99.99
2018-12-14T10:22:00.934Z,99.99
2018-12-14T10:23:00.904Z,99.99
2018-12-14T10:24:00.877Z,99.99
2018-12-14T10:25:00.850Z,99.99
2018-12-14T10:26:00.822Z,99.99
2018-12-14T10:27:00.795Z,99.99
2018-12-14T10:28:00.767Z,99.99
2018-12-14T10:29:00.741Z,99.99
2018-12-14T10:30:00.740Z,99.99
2018-12-14T10:31:00.686Z,99.99
2018-12-14T10:32:00.662Z,99.99
2018-12-14T10:33:00.632Z,99.99
2018-12-14T10:34:00.607Z,99.99
2018-12-14T10:35:00.604Z,99.99
2018-12-14T10:36:00.548Z,99.99
2018-12-14T10:37:00.523Z,99.99
2018-12-14T10:38:00.494Z,99.99
2018-12-14T10:39:00.467Z,99.99
2018-12-14T10:40:00.439Z,99.52
2018-12-14T10:41:00.412Z,99.62
2018-12-14T10:42:00.390Z,98.77
2018-12-14T10:43:00.359Z,98.49
2018-12-14T10:44:00.333Z,98.20
2018-12-14T10:45:00.304Z,98.39
2018-12-14T10:46:00.276Z,98.01
2018-12-14T10:47:00.249Z,97.44
2018-12-14T10:48:00.221Z,97.63
2018-12-14T10:49:00.194Z,97.44
2018-12-14T10:50:00.168Z,96.88
2018-12-14T10:51:00.144Z,96.88
2018-12-14T10:52:00.117Z,96.88
2018-12-14T10:53:00.087Z,97.02
2018-12-14T10:54:00.059Z,96.69
2018-12-14T10:55:00.031Z,96.73
2018-12-14T10:56:00.008Z,96.83
2018-12-14T10:56:59.976Z,96.26
2018-12-14T10:57:59.952Z,96.07
2018-12-14T10:58:59.922Z,96.36
2018-12-14T10:59:59.895Z,96.17
2018-12-14T11:00:59.869Z,95.79
2018-12-14T11:01:59.843Z,96.36
2018-12-14T11:02:59.813Z,95.50
2018-12-14T11:03:59.787Z,95.79
2018-12-14T11:04:59.761Z,94.74
2018-12-14T11:05:59.734Z,95.31
2018-12-14T11:06:59.710Z,94.93
2018-12-14T11:07:59.680Z,95.22
2018-12-14T11:08:59.654Z,94.46
2018-12-14T11:09:59.646Z,94.74
2018-12-14T11:10:59.599Z,93.99
2018-12-14T11:11:59.573Z,93.61
2018-12-14T11:12:59.550Z,93.89
2018-12-14T11:13:59.519Z,94.18
2018-12-14T11:14:59.493Z,93.42
2018-12-14T11:15:59.466Z,93.42
2018-12-14T11:16:59.439Z,93.70
2018-12-14T11:17:59.414Z,93.89
2018-12-14T11:18:59.386Z,93.23
2018-12-14T11:19:59.360Z,93.80
2018-12-14T11:20:59.332Z,93.23
2018-12-14T11:21:59.305Z,93.61
2018-12-14T11:22:59.279Z,93.51
2018-12-14T11:23:59.252Z,93.80
2018-12-14T11:24:59.226Z,93.42
2018-12-14T11:25:59.200Z,93.42
2018-12-14T11:26:59.195Z,93.32
2018-12-14T11:27:59.145Z,93.04
2018-12-14T11:28:59.119Z,92.57
2018-12-14T11:29:59.092Z,93.42
2018-12-14T11:30:59.067Z,93.32
2018-12-14T11:31:59.037Z,93.51
2018-12-14T11:32:59.012Z,93.61
2018-12-14T11:33:58.988Z,93.51
2018-12-14T11:34:58.957Z,93.32
2018-12-14T11:35:58.939Z,93.32
2018-12-14T11:36:58.906Z,92.94
2018-12-14T11:37:58.907Z,93.23
2018-12-14T11:38:58.851Z,92.47
2018-12-14T11:39:58.826Z,92.09
2018-12-14T11:40:58.800Z,92.19
2018-12-14T11:41:58.814Z,92.38
2018-12-14T11:42:58.767Z,92.57
2018-12-14T11:43:58.719Z,92.76
2018-12-14T11:44:58.692Z,92.94
2018-12-14T11:45:58.669Z,93.23
2018-12-14T11:46:58.638Z,92.57
2018-12-14T11:47:58.621Z,92.85
2018-12-14T11:48:58.585Z,93.42
2018-12-14T11:49:58.562Z,92.85
2018-12-14T11:50:58.534Z,92.38
2018-12-14T11:51:58.506Z,92.09
2018-12-14T11:52:58.480Z,92.38
2018-12-14T11:53:58.458Z,92.94
2018-12-14T11:54:58.426Z,92.57
2018-12-14T11:55:58.402Z,91.81
2018-12-14T11:56:58.376Z,91.24
2018-12-14T11:57:58.347Z,91.43
2018-12-14T11:58:58.319Z,91.52
2018-12-14T11:59:58.294Z,91.43
2018-12-14T12:00:58.268Z,91.71
2018-12-14T12:01:58.246Z,91.14
2018-12-14T12:02:58.219Z,90.95
2018-12-14T12:03:58.191Z,91.24
2018-12-14T12:04:58.164Z,91.05
2018-12-14T12:05:58.136Z,91.09
2018-12-14T12:06:58.109Z,91.28
2018-12-14T12:07:58.085Z,90.91
2018-12-14T12:08:58.056Z,91.24
2018-12-14T12:09:58.031Z,91.05
2018-12-14T12:10:58.005Z,91.05
2018-12-14T12:11:57.978Z,91.52
2018-12-14T12:12:57.955Z,91.14
2018-12-14T12:13:57.924Z,91.24
2018-12-14T12:14:57.897Z,91.05
2018-12-14T12:15:57.944Z,91.05
2018-12-14T12:16:57.848Z,91.05
2018-12-14T12:17:57.818Z,91.14
2018-12-14T12:18:57.792Z,90.86
2018-12-14T12:19:57.767Z,90.77
2018-12-14T12:20:57.738Z,90.29
2018-12-14T12:21:57.713Z,90.58
2018-12-14T12:22:57.685Z,90.48
2018-12-14T12:23:57.658Z,91.33
2018-12-14T12:24:57.636Z,90.95
2018-12-14T12:25:57.612Z,91.05
2018-12-14T12:26:57.579Z,90.58
2018-12-14T12:27:57.555Z,91.47
2018-12-14T12:28:57.527Z,91.24
2018-12-14T12:29:57.502Z,90.58
2018-12-14T12:30:57.474Z,90.43
2018-12-14T12:31:57.447Z,90.48
2018-12-14T12:32:57.421Z,90.48
2018-12-14T12:33:57.395Z,89.53
2018-12-14T12:34:57.367Z,89.72
2018-12-14T12:35:57.341Z,89.82
2018-12-14T12:36:57.320Z,89.91
2018-12-14T12:37:57.290Z,90.67
2018-12-14T12:38:57.263Z,90.20
2018-12-14T12:39:57.252Z,90.29
2018-12-14T12:40:57.210Z,90.10
2018-12-14T12:41:57.184Z,89.91
2018-12-14T12:42:57.161Z,89.72
2018-12-14T12:43:57.133Z,89.44
2018-12-14T12:44:57.103Z,89.34
2018-12-14T12:45:57.077Z,89.63
2018-12-14T12:46:57.058Z,89.63
2018-12-14T12:47:57.211Z,89.91
2018-12-14T12:48:57.211Z,89.15
2018-12-14T12:49:57.113Z,90.01
2018-12-14T12:51:02.865Z,89.15
2018-12-14T12:51:56.936Z,88.96